sensor_id;sensor_type;location;lat;lon;timestamp;pressure;altitude;pressure_sealevel;temperature;humidity
38466;BME280;24244;51.950;5.902;2023-05-23T00:01:51;101715.16;;;16.27;76.56
38466;BME280;24244;51.950;5.902;2023-05-23T00:04:20;101705.69;;;16.31;76.52
38466;BME280;24244;51.950;5.902;2023-05-23T00:06:47;101705.28;;;16.34;76.33
38466;BME280;24244;51.950;5.902;2023-05-23T00:09:16;101706.31;;;16.33;76.48
38466;BME280;24244;51.950;5.902;2023-05-23T00:11:43;101704.22;;;16.35;76.33
38466;BME280;24244;51.950;5.902;2023-05-23T00:14:13;101707.31;;;16.25;76.64
38466;BME280;24244;51.950;5.902;2023-05-23T00:16:40;101703.34;;;16.21;76.99
38466;BME280;24244;51.950;5.902;2023-05-23T00:19:11;101697.81;;;16.23;77.11
38466;BME280;24244;51.950;5.902;2023-05-23T00:21:40;101706.25;;;16.20;77.01
38466;BME280;24244;51.950;5.902;2023-05-23T00:24:09;101711.63;;;16.20;77.33
38466;BME280;24244;51.950;5.902;2023-05-23T00:26:36;101709.34;;;16.17;77.36
38466;BME280;24244;51.950;5.902;2023-05-23T00:29:04;101707.03;;;16.14;77.34
38466;BME280;24244;51.950;5.902;2023-05-23T00:31:31;101707.47;;;16.11;77.68
38466;BME280;24244;51.950;5.902;2023-05-23T00:33:58;101710.97;;;16.11;77.60
38466;BME280;24244;51.950;5.902;2023-05-23T00:36:27;101715.50;;;16.11;77.63
38466;BME280;24244;51.950;5.902;2023-05-23T00:38:53;101714.22;;;16.06;78.05
38466;BME280;24244;51.950;5.902;2023-05-23T00:41:21;101724.09;;;15.99;78.57
38466;BME280;24244;51.950;5.902;2023-05-23T00:43:47;101722.41;;;15.92;78.98
38466;BME280;24244;51.950;5.902;2023-05-23T00:46:15;101722.41;;;15.92;78.96
38466;BME280;24244;51.950;5.902;2023-05-23T00:48:42;101723.44;;;15.91;79.01
38466;BME280;24244;51.950;5.902;2023-05-23T00:51:09;101734.41;;;15.96;78.87
38466;BME280;24244;51.950;5.902;2023-05-23T00:53:37;101734.78;;;15.93;79.25
38466;BME280;24244;51.950;5.902;2023-05-23T00:56:04;101724.22;;;15.85;80.05
38466;BME280;24244;51.950;5.902;2023-05-23T00:58:31;101736.75;;;15.78;80.66
38466;BME280;24244;51.950;5.902;2023-05-23T01:00:58;101724.97;;;15.72;80.79
38466;BME280;24244;51.950;5.902;2023-05-23T01:03:25;101732.16;;;15.72;80.80
38466;BME280;24244;51.950;5.902;2023-05-23T01:05:54;101735.06;;;15.70;80.77
38466;BME280;24244;51.950;5.902;2023-05-23T01:08:21;101735.25;;;15.69;81.28
38466;BME280;24244;51.950;5.902;2023-05-23T01:10:50;101731.13;;;15.66;81.21
38466;BME280;24244;51.950;5.902;2023-05-23T01:13:21;101740.78;;;15.60;81.91
38466;BME280;24244;51.950;5.902;2023-05-23T01:15:56;101744.47;;;15.59;81.76
38466;BME280;24244;51.950;5.902;2023-05-23T01:18:32;101739.91;;;15.53;82.16
38466;BME280;24244;51.950;5.902;2023-05-23T01:21:03;101744.75;;;15.50;82.27
38466;BME280;24244;51.950;5.902;2023-05-23T01:23:47;101744.75;;;15.50;82.28
38466;BME280;24244;51.950;5.902;2023-05-23T01:26:31;101744.97;;;15.48;82.17
38466;BME280;24244;51.950;5.902;2023-05-23T01:29:06;101747.03;;;15.46;82.50
38466;BME280;24244;51.950;5.902;2023-05-23T01:31:36;101759.34;;;15.41;82.72
38466;BME280;24244;51.950;5.902;2023-05-23T01:34:06;101754.50;;;15.29;83.32
38466;BME280;24244;51.950;5.902;2023-05-23T01:36:33;101760.88;;;15.28;83.65
38466;BME280;24244;51.950;5.902;2023-05-23T01:39:02;101763.94;;;15.25;83.96
38466;BME280;24244;51.950;5.902;2023-05-23T01:41:29;101754.63;;;15.21;84.11
38466;BME280;24244;51.950;5.902;2023-05-23T01:43:56;101754.06;;;15.26;83.45
38466;BME280;24244;51.950;5.902;2023-05-23T01:46:26;101754.13;;;15.33;83.45
38466;BME280;24244;51.950;5.902;2023-05-23T01:48:54;101750.47;;;15.40;82.74
38466;BME280;24244;51.950;5.902;2023-05-23T01:51:22;101748.88;;;15.46;82.32
38466;BME280;24244;51.950;5.902;2023-05-23T01:53:49;101746.84;;;15.48;82.34
38466;BME280;24244;51.950;5.902;2023-05-23T01:56:22;101753.63;;;15.50;82.29
38466;BME280;24244;51.950;5.902;2023-05-23T01:58:49;101758.47;;;15.55;81.76
38466;BME280;24244;51.950;5.902;2023-05-23T02:01:16;101759.72;;;15.59;81.59
38466;BME280;24244;51.950;5.902;2023-05-23T02:03:45;101761.56;;;15.58;81.77
38466;BME280;24244;51.950;5.902;2023-05-23T02:06:11;101759.63;;;15.52;81.59
38466;BME280;24244;51.950;5.902;2023-05-23T02:08:38;101769.09;;;15.48;81.90
38466;BME280;24244;51.950;5.902;2023-05-23T02:11:06;101770.94;;;15.48;81.64
38466;BME280;24244;51.950;5.902;2023-05-23T02:13:34;101768.88;;;15.50;81.89
38466;BME280;24244;51.950;5.902;2023-05-23T02:16:01;101774.25;;;15.50;81.81
38466;BME280;24244;51.950;5.902;2023-05-23T02:18:28;101774.06;;;15.51;81.66
38466;BME280;24244;51.950;5.902;2023-05-23T02:20:58;101769.91;;;15.49;81.76
38466;BME280;24244;51.950;5.902;2023-05-23T02:23:24;101777.94;;;15.49;81.71
38466;BME280;24244;51.950;5.902;2023-05-23T02:25:51;101771.31;;;15.45;82.02
38466;BME280;24244;51.950;5.902;2023-05-23T02:28:18;101778.53;;;15.44;81.88
38466;BME280;24244;51.950;5.902;2023-05-23T02:30:45;101786.13;;;15.41;82.16
38466;BME280;24244;51.950;5.902;2023-05-23T02:33:12;101786.09;;;15.34;82.64
38466;BME280;24244;51.950;5.902;2023-05-23T02:35:38;101793.47;;;15.32;82.89
38466;BME280;24244;51.950;5.902;2023-05-23T02:38:07;101788.66;;;15.27;83.17
38466;BME280;24244;51.950;5.902;2023-05-23T02:40:34;101792.00;;;15.29;82.59
38466;BME280;24244;51.950;5.902;2023-05-23T02:43:01;101798.59;;;15.27;83.18
38466;BME280;24244;51.950;5.902;2023-05-23T02:45:27;101800.63;;;15.25;83.08
38466;BME280;24244;51.950;5.902;2023-05-23T02:47:54;101795.44;;;15.23;83.13
38466;BME280;24244;51.950;5.902;2023-05-23T02:50:21;101792.75;;;15.23;83.17
38466;BME280;24244;51.950;5.902;2023-05-23T02:52:48;101804.06;;;15.19;83.67
38466;BME280;24244;51.950;5.902;2023-05-23T02:55:16;101799.06;;;15.16;83.92
38466;BME280;24244;51.950;5.902;2023-05-23T02:57:43;101798.25;;;15.15;83.73
38466;BME280;24244;51.950;5.902;2023-05-23T03:00:10;101796.78;;;15.13;83.95
38466;BME280;24244;51.950;5.902;2023-05-23T03:02:37;101802.53;;;15.10;84.27
38466;BME280;24244;51.950;5.902;2023-05-23T03:05:05;101800.28;;;15.13;84.13
38466;BME280;24244;51.950;5.902;2023-05-23T03:07:32;101800.09;;;15.15;83.77
38466;BME280;24244;51.950;5.902;2023-05-23T03:09:59;101800.50;;;15.12;83.79
38466;BME280;24244;51.950;5.902;2023-05-23T03:12:28;101793.47;;;15.11;83.95
38466;BME280;24244;51.950;5.902;2023-05-23T03:14:54;101798.56;;;15.06;84.07
38466;BME280;24244;51.950;5.902;2023-05-23T03:17:24;101807.16;;;15.01;84.53
38466;BME280;24244;51.950;5.902;2023-05-23T03:19:51;101799.53;;;14.98;84.40
38466;BME280;24244;51.950;5.902;2023-05-23T03:22:18;101798.75;;;15.04;84.09
38466;BME280;24244;51.950;5.902;2023-05-23T03:24:45;101805.97;;;15.04;84.47
38466;BME280;24244;51.950;5.902;2023-05-23T03:27:12;101806.31;;;15.01;84.42
38466;BME280;24244;51.950;5.902;2023-05-23T03:29:41;101812.91;;;14.98;84.39
38466;BME280;24244;51.950;5.902;2023-05-23T03:32:10;101811.63;;;14.94;84.50
38466;BME280;24244;51.950;5.902;2023-05-23T03:34:37;101810.34;;;14.90;84.73
38466;BME280;24244;51.950;5.902;2023-05-23T03:37:04;101807.66;;;14.90;84.58
38466;BME280;24244;51.950;5.902;2023-05-23T03:39:31;101810.97;;;14.92;84.11
38466;BME280;24244;51.950;5.902;2023-05-23T03:41:58;101814.69;;;14.91;84.26
38466;BME280;24244;51.950;5.902;2023-05-23T03:44:25;101814.03;;;14.89;84.12
38466;BME280;24244;51.950;5.902;2023-05-23T03:46:53;101815.88;;;14.88;84.20
38466;BME280;24244;51.950;5.902;2023-05-23T03:49:20;101811.53;;;14.87;83.99
38466;BME280;24244;51.950;5.902;2023-05-23T03:51:47;101816.25;;;14.85;84.31
38466;BME280;24244;51.950;5.902;2023-05-23T03:54:13;101825.09;;;14.86;84.07
38466;BME280;24244;51.950;5.902;2023-05-23T03:56:42;101816.25;;;14.85;83.95
38466;BME280;24244;51.950;5.902;2023-05-23T03:59:09;101823.25;;;14.86;83.87
38466;BME280;24244;51.950;5.902;2023-05-23T04:01:36;101824.75;;;14.89;83.48
38466;BME280;24244;51.950;5.902;2023-05-23T04:04:06;101825.41;;;14.91;83.49
38466;BME280;24244;51.950;5.902;2023-05-23T04:06:33;101822.50;;;14.93;83.26
38466;BME280;24244;51.950;5.902;2023-05-23T04:09:00;101826.22;;;14.92;83.11
38466;BME280;24244;51.950;5.902;2023-05-23T04:11:28;101822.72;;;14.91;83.08
38466;BME280;24244;51.950;5.902;2023-05-23T04:13:55;101830.34;;;14.94;82.77
38466;BME280;24244;51.950;5.902;2023-05-23T04:16:22;101841.53;;;14.98;82.62
38466;BME280;24244;51.950;5.902;2023-05-23T04:18:50;101838.84;;;14.98;82.31
38466;BME280;24244;51.950;5.902;2023-05-23T04:21:18;101838.03;;;14.97;82.31
38466;BME280;24244;51.950;5.902;2023-05-23T04:23:45;101843.19;;;14.99;82.45
38466;BME280;24244;51.950;5.902;2023-05-23T04:26:12;101841.53;;;14.98;82.22
38466;BME280;24244;51.950;5.902;2023-05-23T04:28:39;101838.03;;;14.97;82.12
38466;BME280;24244;51.950;5.902;2023-05-23T04:31:06;101841.91;;;14.95;81.82
38466;BME280;24244;51.950;5.902;2023-05-23T04:33:34;101853.25;;;14.97;82.02
38466;BME280;24244;51.950;5.902;2023-05-23T04:36:01;101852.69;;;15.01;81.61
38466;BME280;24244;51.950;5.902;2023-05-23T04:38:29;101859.88;;;15.01;81.53
38466;BME280;24244;51.950;5.902;2023-05-23T04:40:57;101863.38;;;15.01;81.54
38466;BME280;24244;51.950;5.902;2023-05-23T04:43:24;101868.75;;;15.01;81.31
38466;BME280;24244;51.950;5.902;2023-05-23T04:45:55;101862.56;;;15.01;81.35
38466;BME280;24244;51.950;5.902;2023-05-23T04:48:23;101862.56;;;15.01;81.17
38466;BME280;24244;51.950;5.902;2023-05-23T04:50:50;101868.09;;;14.99;81.26
38466;BME280;24244;51.950;5.902;2023-05-23T04:53:18;101870.59;;;15.01;81.29
38466;BME280;24244;51.950;5.902;2023-05-23T04:55:46;101873.28;;;15.01;81.20
38466;BME280;24244;51.950;5.902;2023-05-23T04:58:13;101880.38;;;14.94;80.78
38466;BME280;24244;51.950;5.902;2023-05-23T05:00:40;101877.28;;;14.90;80.82
38466;BME280;24244;51.950;5.902;2023-05-23T05:03:07;101883.81;;;14.87;80.82
38466;BME280;24244;51.950;5.902;2023-05-23T05:05:37;101893.88;;;14.85;80.96
38466;BME280;24244;51.950;5.902;2023-05-23T05:08:04;101895.47;;;14.80;81.05
38466;BME280;24244;51.950;5.902;2023-05-23T05:10:31;101900.91;;;14.72;81.47
38466;BME280;24244;51.950;5.902;2023-05-23T05:13:00;101900.28;;;14.70;81.81
38466;BME280;24244;51.950;5.902;2023-05-23T05:15:26;101904.81;;;14.69;81.75
38466;BME280;24244;51.950;5.902;2023-05-23T05:17:53;101912.34;;;14.66;82.18
38466;BME280;24244;51.950;5.902;2023-05-23T05:20:20;101919.28;;;14.60;82.24
38466;BME280;24244;51.950;5.902;2023-05-23T05:22:54;101921.03;;;14.53;82.64
38466;BME280;24244;51.950;5.902;2023-05-23T05:25:20;101923.78;;;14.45;82.92
38466;BME280;24244;51.950;5.902;2023-05-23T05:27:47;101931.38;;;14.41;83.24
38466;BME280;24244;51.950;5.902;2023-05-23T05:30:15;101919.69;;;14.34;83.20
38466;BME280;24244;51.950;5.902;2023-05-23T05:32:43;101926.13;;;14.25;83.54
38466;BME280;24244;51.950;5.902;2023-05-23T05:35:11;101924.63;;;14.23;83.51
38466;BME280;24244;51.950;5.902;2023-05-23T05:37:41;101931.84;;;14.22;83.38
38466;BME280;24244;51.950;5.902;2023-05-23T05:40:08;101935.16;;;14.24;83.07
38466;BME280;24244;51.950;5.902;2023-05-23T05:42:35;101934.50;;;14.22;83.32
38466;BME280;24244;51.950;5.902;2023-05-23T05:45:02;101936.56;;;14.20;83.55
38466;BME280;24244;51.950;5.902;2023-05-23T05:47:31;101947.88;;;14.22;83.57
38466;BME280;24244;51.950;5.902;2023-05-23T05:49:58;101948.09;;;14.21;83.57
38466;BME280;24244;51.950;5.902;2023-05-23T05:52:24;101940.06;;;14.21;83.63
38466;BME280;24244;51.950;5.902;2023-05-23T05:54:51;101948.88;;;14.21;83.83
38466;BME280;24244;51.950;5.902;2023-05-23T05:57:18;101956.63;;;14.16;83.78
38466;BME280;24244;51.950;5.902;2023-05-23T05:59:44;101962.03;;;14.08;84.15
38466;BME280;24244;51.950;5.902;2023-05-23T06:02:11;101967.28;;;14.01;83.94
38466;BME280;24244;51.950;5.902;2023-05-23T06:04:39;101968.00;;;13.95;83.92
38466;BME280;24244;51.950;5.902;2023-05-23T06:07:06;101973.06;;;13.90;83.53
38466;BME280;24244;51.950;5.902;2023-05-23T06:09:33;101985.09;;;13.86;83.43
38466;BME280;24244;51.950;5.902;2023-05-23T06:12:00;101983.31;;;13.79;83.00
38466;BME280;24244;51.950;5.902;2023-05-23T06:14:28;101980.34;;;13.73;83.00
38466;BME280;24244;51.950;5.902;2023-05-23T06:16:55;101979.50;;;13.73;82.70
38466;BME280;24244;51.950;5.902;2023-05-23T06:19:22;101984.84;;;13.73;82.58
38466;BME280;24244;51.950;5.902;2023-05-23T06:21:51;101988.34;;;13.73;82.62
38466;BME280;24244;51.950;5.902;2023-05-23T06:24:18;101984.00;;;13.72;82.37
38466;BME280;24244;51.950;5.902;2023-05-23T06:26:44;101989.19;;;13.74;81.88
38466;BME280;24244;51.950;5.902;2023-05-23T06:29:12;101987.06;;;13.69;81.44
38466;BME280;24244;51.950;5.902;2023-05-23T06:31:38;101993.75;;;13.65;81.48
38466;BME280;24244;51.950;5.902;2023-05-23T06:34:05;101992.91;;;13.65;81.24
38466;BME280;24244;51.950;5.902;2023-05-23T06:36:32;101996.13;;;13.60;80.59
38466;BME280;24244;51.950;5.902;2023-05-23T06:39:00;101996.47;;;13.57;80.22
38466;BME280;24244;51.950;5.902;2023-05-23T06:41:27;101994.81;;;13.56;80.07
38466;BME280;24244;51.950;5.902;2023-05-23T06:43:54;101998.97;;;13.59;80.33
38466;BME280;24244;51.950;5.902;2023-05-23T06:46:21;102007.47;;;13.62;79.77
38466;BME280;24244;51.950;5.902;2023-05-23T06:48:48;102016.66;;;13.60;79.46
38466;BME280;24244;51.950;5.902;2023-05-23T06:51:32;102009.47;;;13.60;78.82
38466;BME280;24244;51.950;5.902;2023-05-23T06:54:00;102022.84;;;13.60;78.47
38466;BME280;24244;51.950;5.902;2023-05-23T06:56:27;102018.03;;;13.56;77.35
38466;BME280;24244;51.950;5.902;2023-05-23T06:58:55;102024.53;;;13.53;76.53
38466;BME280;24244;51.950;5.902;2023-05-23T07:01:22;102024.38;;;13.55;76.46
38466;BME280;24244;51.950;5.902;2023-05-23T07:03:49;102025.22;;;13.55;74.99
38466;BME280;24244;51.950;5.902;2023-05-23T07:06:16;102027.50;;;13.58;74.73
38466;BME280;24244;51.950;5.902;2023-05-23T07:08:43;102029.84;;;13.61;73.42
38466;BME280;24244;51.950;5.902;2023-05-23T07:11:11;102038.88;;;13.60;72.74
38466;BME280;24244;51.950;5.902;2023-05-23T07:13:38;102022.84;;;13.60;72.45
38466;BME280;24244;51.950;5.902;2023-05-23T07:16:05;102026.66;;;13.66;72.06
38466;BME280;24244;51.950;5.902;2023-05-23T07:18:34;102041.13;;;13.71;71.19
38466;BME280;24244;51.950;5.902;2023-05-23T07:21:04;102041.94;;;13.80;70.63
38466;BME280;24244;51.950;5.902;2023-05-23T07:23:31;102040.03;;;13.89;69.50
38466;BME280;24244;51.950;5.902;2023-05-23T07:25:59;102040.34;;;13.94;69.34
38466;BME280;24244;51.950;5.902;2023-05-23T07:28:30;102036.31;;;13.98;68.30
38466;BME280;24244;51.950;5.902;2023-05-23T07:30:57;102042.31;;;14.00;67.89
38466;BME280;24244;51.950;5.902;2023-05-23T07:33:24;102054.88;;;13.99;67.52
38466;BME280;24244;51.950;5.902;2023-05-23T07:35:52;102041.28;;;14.01;67.89
38466;BME280;24244;51.950;5.902;2023-05-23T07:38:19;102037.78;;;14.00;67.47
38466;BME280;24244;51.950;5.902;2023-05-23T07:40:46;102042.63;;;14.05;68.12
38466;BME280;24244;51.950;5.902;2023-05-23T07:43:37;102046.41;;;14.10;67.85
38466;BME280;24244;51.950;5.902;2023-05-23T07:46:03;102052.22;;;14.14;67.40
38466;BME280;24244;51.950;5.902;2023-05-23T07:48:30;102062.25;;;14.20;67.14
38466;BME280;24244;51.950;5.902;2023-05-23T07:50:57;102057.53;;;14.22;66.55
38466;BME280;24244;51.950;5.902;2023-05-23T07:53:24;102069.94;;;14.15;66.52
38466;BME280;24244;51.950;5.902;2023-05-23T07:55:51;102059.75;;;14.19;66.71
38466;BME280;24244;51.950;5.902;2023-05-23T07:58:18;102063.38;;;14.26;67.25
38466;BME280;24244;51.950;5.902;2023-05-23T08:00:46;102057.00;;;14.27;66.91
38466;BME280;24244;51.950;5.902;2023-05-23T08:03:17;102077.56;;;14.26;67.13
38466;BME280;24244;51.950;5.902;2023-05-23T08:05:44;102068.53;;;14.27;67.30
38466;BME280;24244;51.950;5.902;2023-05-23T08:08:12;102062.81;;;14.30;67.85
38466;BME280;24244;51.950;5.902;2023-05-23T08:10:39;102084.94;;;14.24;67.95
38466;BME280;24244;51.950;5.902;2023-05-23T08:13:08;102091.16;;;14.17;68.36
38466;BME280;24244;51.950;5.902;2023-05-23T08:15:35;102088.38;;;14.10;68.63
38466;BME280;24244;51.950;5.902;2023-05-23T08:18:04;102075.53;;;14.05;68.87
38466;BME280;24244;51.950;5.902;2023-05-23T08:20:31;102083.91;;;14.02;69.06
38466;BME280;24244;51.950;5.902;2023-05-23T08:22:59;102090.25;;;14.01;69.29
38466;BME280;24244;51.950;5.902;2023-05-23T08:25:26;102103.28;;;14.04;69.34
38466;BME280;24244;51.950;5.902;2023-05-23T08:27:59;102094.06;;;14.07;69.19
38466;BME280;24244;51.950;5.902;2023-05-23T08:30:27;102097.22;;;14.10;68.91
38466;BME280;24244;51.950;5.902;2023-05-23T08:32:55;102098.19;;;14.18;68.63
38466;BME280;24244;51.950;5.902;2023-05-23T08:35:23;102094.06;;;14.30;68.79
38466;BME280;24244;51.950;5.902;2023-05-23T08:37:51;102103.88;;;14.37;67.71
38466;BME280;24244;51.950;5.902;2023-05-23T08:40:20;102104.88;;;14.44;67.80
38466;BME280;24244;51.950;5.902;2023-05-23T08:42:48;102108.63;;;14.58;67.81
38466;BME280;24244;51.950;5.902;2023-05-23T08:45:17;102102.53;;;14.64;66.95
38466;BME280;24244;51.950;5.902;2023-05-23T08:47:45;102107.19;;;14.70;66.89
38466;BME280;24244;51.950;5.902;2023-05-23T08:50:14;102109.88;;;14.70;66.50
38466;BME280;24244;51.950;5.902;2023-05-23T08:52:49;102111.59;;;14.63;65.49
38466;BME280;24244;51.950;5.902;2023-05-23T08:55:20;102112.00;;;14.52;65.28
38466;BME280;24244;51.950;5.902;2023-05-23T08:57:51;102113.84;;;14.52;65.54
38466;BME280;24244;51.950;5.902;2023-05-23T09:00:19;102112.19;;;14.50;65.30
38466;BME280;24244;51.950;5.902;2023-05-23T09:02:48;102119.91;;;14.45;64.82
38466;BME280;24244;51.950;5.902;2023-05-23T09:05:15;102117.06;;;14.47;64.82
38466;BME280;24244;51.950;5.902;2023-05-23T09:07:46;102112.84;;;14.53;64.50
38466;BME280;24244;51.950;5.902;2023-05-23T09:10:14;102116.13;;;14.63;64.42
38466;BME280;24244;51.950;5.902;2023-05-23T09:12:45;102113.34;;;14.71;63.63
38466;BME280;24244;51.950;5.902;2023-05-23T09:15:13;102137.94;;;14.74;62.96
38466;BME280;24244;51.950;5.902;2023-05-23T09:17:40;102139.59;;;14.75;62.75
38466;BME280;24244;51.950;5.902;2023-05-23T09:20:14;102130.72;;;14.75;62.41
38466;BME280;24244;51.950;5.902;2023-05-23T09:22:46;102140.44;;;14.76;62.03
38466;BME280;24244;51.950;5.902;2023-05-23T09:25:13;102141.91;;;14.78;62.09
38466;BME280;24244;51.950;5.902;2023-05-23T09:27:41;102153.75;;;14.84;62.13
38466;BME280;24244;51.950;5.902;2023-05-23T09:30:12;102134.28;;;14.90;61.77
38466;BME280;24244;51.950;5.902;2023-05-23T09:32:39;102143.09;;;14.99;62.01
38466;BME280;24244;51.950;5.902;2023-05-23T09:35:08;102137.19;;;15.03;61.80
38466;BME280;24244;51.950;5.902;2023-05-23T09:37:42;102138.28;;;15.09;61.16
38466;BME280;24244;51.950;5.902;2023-05-23T09:40:13;102131.75;;;15.11;61.46
38466;BME280;24244;51.950;5.902;2023-05-23T09:42:41;102140.31;;;15.07;60.22
38466;BME280;24244;51.950;5.902;2023-05-23T09:45:10;102138.53;;;14.99;60.53
38466;BME280;24244;51.950;5.902;2023-05-23T09:47:37;102141.03;;;15.01;60.22
38466;BME280;24244;51.950;5.902;2023-05-23T09:50:05;102143.44;;;14.96;60.09
38466;BME280;24244;51.950;5.902;2023-05-23T09:52:35;102146.03;;;15.04;60.60
38466;BME280;24244;51.950;5.902;2023-05-23T09:55:05;102140.06;;;15.16;60.95
38466;BME280;24244;51.950;5.902;2023-05-23T09:57:34;102138.78;;;15.27;60.91
38466;BME280;24244;51.950;5.902;2023-05-23T10:00:04;102144.25;;;15.34;61.11
38466;BME280;24244;51.950;5.902;2023-05-23T10:02:53;102145.63;;;15.29;59.11
38466;BME280;24244;51.950;5.902;2023-05-23T10:05:32;102143.59;;;15.32;59.72
38466;BME280;24244;51.950;5.902;2023-05-23T10:08:01;102147.47;;;15.44;60.01
38466;BME280;24244;51.950;5.902;2023-05-23T10:10:31;102134.91;;;15.44;58.75
38466;BME280;24244;51.950;5.902;2023-05-23T10:13:03;102142.50;;;15.41;56.94
38466;BME280;24244;51.950;5.902;2023-05-23T10:15:36;102140.44;;;15.43;56.87
38466;BME280;24244;51.950;5.902;2023-05-23T10:18:11;102135.69;;;15.53;57.13
38466;BME280;24244;51.950;5.902;2023-05-23T10:20:42;102142.88;;;15.67;57.13
38466;BME280;24244;51.950;5.902;2023-05-23T10:23:14;102136.88;;;15.80;56.89
38466;BME280;24244;51.950;5.902;2023-05-23T10:25:43;102137.59;;;15.88;56.30
38466;BME280;24244;51.950;5.902;2023-05-23T10:28:12;102143.97;;;15.87;54.62
38466;BME280;24244;51.950;5.902;2023-05-23T10:30:39;102149.41;;;15.94;54.87
38466;BME280;24244;51.950;5.902;2023-05-23T10:33:07;102133.28;;;16.09;55.27
38466;BME280;24244;51.950;5.902;2023-05-23T10:35:46;102134.09;;;16.24;55.43
38466;BME280;24244;51.950;5.902;2023-05-23T10:38:28;102134.81;;;16.32;54.22
38466;BME280;24244;51.950;5.902;2023-05-23T10:41:01;102138.66;;;16.44;54.31
38466;BME280;24244;51.950;5.902;2023-05-23T10:43:41;102139.91;;;16.49;52.85
38466;BME280;24244;51.950;5.902;2023-05-23T10:46:11;102138.47;;;16.46;52.44
38466;BME280;24244;51.950;5.902;2023-05-23T10:48:40;102132.13;;;16.54;52.79
38466;BME280;24244;51.950;5.902;2023-05-23T10:51:08;102145.25;;;16.63;52.92
38466;BME280;24244;51.950;5.902;2023-05-23T10:53:37;102137.00;;;16.65;52.84
38466;BME280;24244;51.950;5.902;2023-05-23T10:56:05;102135.47;;;16.77;53.47
38466;BME280;24244;51.950;5.902;2023-05-23T10:58:37;102140.28;;;16.81;52.52
38466;BME280;24244;51.950;5.902;2023-05-23T11:01:05;102145.78;;;16.73;53.00
38466;BME280;24244;51.950;5.902;2023-05-23T11:03:34;102139.75;;;16.71;52.90
38466;BME280;24244;51.950;5.902;2023-05-23T11:06:03;102142.91;;;16.75;52.91
38466;BME280;24244;51.950;5.902;2023-05-23T11:08:37;102142.19;;;16.66;50.56
38466;BME280;24244;51.950;5.902;2023-05-23T11:11:15;102137.00;;;16.65;51.81
38466;BME280;24244;51.950;5.902;2023-05-23T11:13:57;102131.31;;;16.74;52.05
38466;BME280;24244;51.950;5.902;2023-05-23T11:16:29;102128.06;;;16.79;52.03
38466;BME280;24244;51.950;5.902;2023-05-23T11:19:21;102143.72;;;16.75;51.41
38466;BME280;24244;51.950;5.902;2023-05-23T11:21:53;102135.41;;;16.70;52.03
38466;BME280;24244;51.950;5.902;2023-05-23T11:24:20;102139.69;;;16.65;50.02
38466;BME280;24244;51.950;5.902;2023-05-23T11:26:51;102132.28;;;16.67;50.99
38466;BME280;24244;51.950;5.902;2023-05-23T11:29:21;102136.28;;;16.77;50.24
38466;BME280;24244;51.950;5.902;2023-05-23T11:31:48;102136.06;;;16.72;50.24
38466;BME280;24244;51.950;5.902;2023-05-23T11:34:15;102145.00;;;16.79;50.72
38466;BME280;24244;51.950;5.902;2023-05-23T11:36:44;102144.63;;;16.82;50.91
38466;BME280;24244;51.950;5.902;2023-05-23T11:39:12;102148.31;;;16.81;51.10
38466;BME280;24244;51.950;5.902;2023-05-23T11:41:40;102145.22;;;16.84;50.79
38466;BME280;24244;51.950;5.902;2023-05-23T11:44:11;102149.22;;;16.89;50.35
38466;BME280;24244;51.950;5.902;2023-05-23T11:46:40;102152.13;;;16.94;50.17
38466;BME280;24244;51.950;5.902;2023-05-23T11:49:11;102150.53;;;16.99;49.88
38466;BME280;24244;51.950;5.902;2023-05-23T11:51:38;102159.56;;;16.92;49.20
38466;BME280;24244;51.950;5.902;2023-05-23T11:54:05;102159.56;;;16.92;49.22
38466;BME280;24244;51.950;5.902;2023-05-23T11:56:38;102161.22;;;16.93;48.72
38466;BME280;24244;51.950;5.902;2023-05-23T11:59:06;102150.19;;;16.81;48.04
38466;BME280;24244;51.950;5.902;2023-05-23T12:01:35;102155.75;;;16.79;48.66
38466;BME280;24244;51.950;5.902;2023-05-23T12:04:08;102154.78;;;16.87;49.50
38466;BME280;24244;51.950;5.902;2023-05-23T12:06:38;102153.81;;;16.95;50.02
38466;BME280;24244;51.950;5.902;2023-05-23T12:09:06;102162.50;;;16.97;49.92
38466;BME280;24244;51.950;5.902;2023-05-23T12:11:34;102156.25;;;16.90;50.26
38466;BME280;24244;51.950;5.902;2023-05-23T12:14:00;102162.06;;;16.93;49.17
38466;BME280;24244;51.950;5.902;2023-05-23T12:16:33;102163.28;;;16.91;48.89
38466;BME280;24244;51.950;5.902;2023-05-23T12:19:03;102165.34;;;16.89;48.37
38466;BME280;24244;51.950;5.902;2023-05-23T12:21:40;102167.38;;;16.87;48.41
38466;BME280;24244;51.950;5.902;2023-05-23T12:24:15;102167.50;;;16.78;47.81
38466;BME280;24244;51.950;5.902;2023-05-23T12:26:47;102159.56;;;16.70;47.50
38466;BME280;24244;51.950;5.902;2023-05-23T12:29:13;102164.03;;;16.63;47.16
38466;BME280;24244;51.950;5.902;2023-05-23T12:31:42;102166.44;;;16.58;47.75
38466;BME280;24244;51.950;5.902;2023-05-23T12:34:11;102173.81;;;16.71;48.02
38466;BME280;24244;51.950;5.902;2023-05-23T12:36:38;102168.16;;;16.80;47.71
38466;BME280;24244;51.950;5.902;2023-05-23T12:39:22;102174.66;;;16.93;46.39
38466;BME280;24244;51.950;5.902;2023-05-23T12:41:49;102170.44;;;17.05;46.96
38466;BME280;24244;51.950;5.902;2023-05-23T12:44:17;102184.94;;;17.10;47.50
38466;BME280;24244;51.950;5.902;2023-05-23T12:46:45;102165.69;;;17.07;47.60
38466;BME280;24244;51.950;5.902;2023-05-23T12:49:13;102173.75;;;17.07;47.94
38466;BME280;24244;51.950;5.902;2023-05-23T12:51:39;102182.69;;;17.14;48.33
38466;BME280;24244;51.950;5.902;2023-05-23T12:54:07;102181.41;;;17.10;47.77
38466;BME280;24244;51.950;5.902;2023-05-23T12:56:34;102179.41;;;16.91;47.32
38466;BME280;24244;51.950;5.902;2023-05-23T12:59:01;102188.56;;;16.75;47.52